Time;durP1;ratioP1;P1;durP2;ratioP2;P2;SDS_P1;SDS_P2;PMS_P1;PMS_P2;Temp;Humidity;BMP_temperature;BMP_pressure;BME280_temperature;BME280_humidity;BME280_pressure;Samples;Min_cycle;Max_cycle;Signal;HPM_P1;HPM_P2
2021/07/20 00:01:04;;;;;;;15.40;10.80;;;;;;;;;;494586;240;27348;-70
2021/07/20 00:03:10;;;;;;;12.90;10.10;;;;;;;;;;494572;240;27964;-71
2021/07/20 00:05:09;;;;;;;12.90;10.00;;;;;;;;;;494297;240;27455;-72
2021/07/20 00:07:10;;;;;;;12.50;9.73;;;;;;;;;;494573;240;27348;-71
2021/07/20 00:09:12;;;;;;;16.33;11.90;;;;;;;;;;494599;240;27360;-69
2021/07/20 00:11:14;;;;;;;14.90;10.83;;;;;;;;;;494629;240;27439;-71
2021/07/20 00:13:16;;;;;;;16.40;11.93;;;;;;;;;;494576;240;27489;-71
2021/07/20 00:15:19;;;;;;;12.13;9.73;;;;;;;;;;494610;240;27340;-71
2021/07/20 00:17:22;;;;;;;13.63;10.23;;;;;;;;;;494616;240;27368;-70
2021/07/20 00:19:23;;;;;;;14.60;10.37;;;;;;;;;;494505;240;27344;-69
2021/07/20 00:21:25;;;;;;;15.80;11.10;;;;;;;;;;494624;240;28719;-69
2021/07/20 00:23:27;;;;;;;13.70;10.80;;;;;;;;;;494598;240;27387;-69
2021/07/20 00:25:29;;;;;;;14.60;10.03;;;;;;;;;;494604;240;28168;-70
2021/07/20 00:27:31;;;;;;;14.00;10.33;;;;;;;;;;494610;240;27383;-70
2021/07/20 00:29:33;;;;;;;15.07;10.70;;;;;;;;;;494609;240;28000;-72
2021/07/20 00:31:35;;;;;;;14.57;9.80;;;;;;;;;;494616;240;27379;-69
2021/07/20 00:33:38;;;;;;;15.40;11.07;;;;;;;;;;494588;238;27969;-71
2021/07/20 00:35:40;;;;;;;11.50;9.40;;;;;;;;;;494596;240;27407;-71
2021/07/20 00:37:42;;;;;;;13.97;10.47;;;;;;;;;;494606;240;27403;-71
2021/07/20 00:39:44;;;;;;;13.73;10.40;;;;;;;;;;494628;240;27388;-69
2021/07/20 00:41:46;;;;;;;13.53;9.67;;;;;;;;;;494615;240;27384;-71
2021/07/20 00:43:48;;;;;;;15.20;10.67;;;;;;;;;;494600;238;27387;-71
2021/07/20 00:45:50;;;;;;;15.20;10.20;;;;;;;;;;494609;240;27380;-71
2021/07/20 00:47:52;;;;;;;14.00;10.63;;;;;;;;;;494594;240;27395;-69
2021/07/20 00:49:55;;;;;;;13.37;10.07;;;;;;;;;;494619;240;27371;-71
2021/07/20 00:51:57;;;;;;;12.97;9.23;;;;;;;;;;494617;240;27949;-70
2021/07/20 00:53:59;;;;;;;15.97;10.93;;;;;;;;;;494620;240;27399;-70
2021/07/20 00:56:01;;;;;;;13.80;10.00;;;;;;;;;;494628;240;27974;-73
2021/07/20 00:58:03;;;;;;;14.33;10.00;;;;;;;;;;494613;240;27363;-68
2021/07/20 01:00:05;;;;;;;15.00;10.40;;;;;;;;;;494611;240;27879;-70
2021/07/20 01:02:07;;;;;;;10.93;8.63;;;;;;;;;;494613;240;27349;-69
2021/07/20 01:04:09;;;;;;;12.00;9.23;;;;;;;;;;494610;240;27449;-69
2021/07/20 01:06:11;;;;;;;12.87;9.20;;;;;;;;;;494619;240;27454;-70
2021/07/20 01:08:14;;;;;;;13.20;8.90;;;;;;;;;;494623;240;27467;-69
2021/07/20 01:10:16;;;;;;;15.27;11.30;;;;;;;;;;494642;240;27367;-69
2021/07/20 01:12:18;;;;;;;16.27;10.40;;;;;;;;;;494639;238;27344;-69
2021/07/20 01:14:20;;;;;;;13.50;9.97;;;;;;;;;;494605;240;27490;-70
2021/07/20 01:16:22;;;;;;;12.60;9.70;;;;;;;;;;494591;240;27330;-71
2021/07/20 01:18:24;;;;;;;12.30;9.57;;;;;;;;;;494597;240;27454;-72
2021/07/20 01:20:26;;;;;;;13.30;9.83;;;;;;;;;;494623;240;27371;-70
2021/07/20 01:22:29;;;;;;;12.97;9.33;;;;;;;;;;494617;240;27364;-70
2021/07/20 01:24:31;;;;;;;12.10;9.10;;;;;;;;;;494557;240;27363;-69
2021/07/20 01:26:33;;;;;;;14.10;9.97;;;;;;;;;;494589;240;27750;-69
2021/07/20 01:28:35;;;;;;;16.30;9.50;;;;;;;;;;494565;240;27383;-69
2021/07/20 01:30:37;;;;;;;14.03;9.17;;;;;;;;;;494568;240;27922;-69
2021/07/20 01:32:39;;;;;;;13.20;8.97;;;;;;;;;;494592;238;27383;-69
2021/07/20 01:34:41;;;;;;;12.00;9.03;;;;;;;;;;494615;240;27889;-70
2021/07/20 01:36:43;;;;;;;11.50;9.03;;;;;;;;;;494591;239;27367;-69
2021/07/20 01:38:45;;;;;;;12.20;9.20;;;;;;;;;;494620;240;27876;-69
2021/07/20 01:40:47;;;;;;;12.67;9.40;;;;;;;;;;494589;240;27392;-70
2021/07/20 01:42:50;;;;;;;13.03;9.33;;;;;;;;;;494604;240;28000;-68
2021/07/20 01:44:52;;;;;;;12.17;8.90;;;;;;;;;;494591;240;27368;-69
2021/07/20 01:46:54;;;;;;;13.00;9.87;;;;;;;;;;494595;240;27865;-70
2021/07/20 01:48:56;;;;;;;14.13;10.37;;;;;;;;;;494574;240;27387;-69
2021/07/20 01:50:58;;;;;;;13.00;9.33;;;;;;;;;;494587;238;27918;-70
2021/07/20 01:53:00;;;;;;;14.33;9.90;;;;;;;;;;494595;240;27383;-70
2021/07/20 01:55:02;;;;;;;11.77;9.00;;;;;;;;;;494579;240;28695;-71
2021/07/20 01:57:04;;;;;;;13.67;9.30;;;;;;;;;;494579;240;27454;-69
2021/07/20 01:59:06;;;;;;;12.20;9.40;;;;;;;;;;494609;240;27450;-71
2021/07/20 02:01:09;;;;;;;13.43;9.20;;;;;;;;;;494572;240;27353;-71
2021/07/20 02:03:19;;;;;;;12.80;9.63;;;;;;;;;;494562;240;27435;-69
2021/07/20 02:09:56;;;;;;;13.70;9.20;;;;;;;;;;479737;247;27440;-69
2021/07/20 02:11:58;;;;;;;13.40;10.50;;;;;;;;;;463333;256;27610;-69
2021/07/20 02:14:02;;;;;;;12.30;9.07;;;;;;;;;;493331;240;27399;-69
2021/07/20 02:16:03;;;;;;;12.90;9.40;;;;;;;;;;494524;240;27937;-70
2021/07/20 02:18:05;;;;;;;12.33;8.73;;;;;;;;;;494583;240;27498;-70
2021/07/20 02:20:07;;;;;;;12.07;9.40;;;;;;;;;;494590;240;27984;-69
2021/07/20 02:22:09;;;;;;;13.23;9.10;;;;;;;;;;494581;240;27372;-70
2021/07/20 02:24:11;;;;;;;13.00;9.40;;;;;;;;;;494592;240;27866;-69
2021/07/20 02:26:13;;;;;;;12.60;9.37;;;;;;;;;;494594;240;27431;-70
2021/07/20 02:28:15;;;;;;;13.33;9.60;;;;;;;;;;494580;240;27807;-68
2021/07/20 02:30:18;;;;;;;13.90;10.23;;;;;;;;;;494579;240;27399;-70
2021/07/20 02:32:21;;;;;;;13.77;10.07;;;;;;;;;;494587;240;27923;-70
2021/07/20 02:34:22;;;;;;;14.33;9.80;;;;;;;;;;494560;240;27486;-70
2021/07/20 02:36:24;;;;;;;14.50;9.83;;;;;;;;;;494604;240;27340;-70
2021/07/20 02:38:26;;;;;;;16.03;9.70;;;;;;;;;;494597;240;27836;-70
2021/07/20 02:40:28;;;;;;;15.30;9.40;;;;;;;;;;494582;240;27332;-69
2021/07/20 02:42:30;;;;;;;12.50;9.50;;;;;;;;;;494593;235;27914;-69
2021/07/20 02:44:32;;;;;;;12.90;9.20;;;;;;;;;;494593;240;27353;-69
2021/07/20 02:46:34;;;;;;;12.43;9.13;;;;;;;;;;494602;240;28712;-69
2021/07/20 02:48:37;;;;;;;14.87;10.00;;;;;;;;;;494630;240;27439;-69
2021/07/20 02:50:39;;;;;;;14.83;10.70;;;;;;;;;;494627;240;27938;-69
2021/07/20 02:52:41;;;;;;;13.50;9.93;;;;;;;;;;494623;238;27435;-70
2021/07/20 02:54:43;;;;;;;14.93;9.30;;;;;;;;;;494600;240;28146;-70
2021/07/20 02:56:45;;;;;;;12.87;8.87;;;;;;;;;;494610;240;27454;-69
2021/07/20 02:58:48;;;;;;;13.07;9.23;;;;;;;;;;494615;240;28599;-69
2021/07/20 03:00:49;;;;;;;15.77;9.67;;;;;;;;;;494556;240;27851;-69
2021/07/20 03:02:51;;;;;;;13.10;9.40;;;;;;;;;;494598;240;27839;-69
2021/07/20 03:04:54;;;;;;;12.17;9.47;;;;;;;;;;494600;240;28439;-69
2021/07/20 03:06:56;;;;;;;13.03;9.20;;;;;;;;;;494596;240;27466;-70
2021/07/20 03:09:01;;;;;;;12.57;9.70;;;;;;;;;;494577;240;28582;-68
2021/07/20 03:11:03;;;;;;;11.00;8.37;;;;;;;;;;494579;240;28372;-70
2021/07/20 03:13:05;;;;;;;10.17;8.10;;;;;;;;;;494577;240;28799;-69
2021/07/20 03:15:07;;;;;;;11.40;8.93;;;;;;;;;;494574;240;28412;-69
2021/07/20 03:17:09;;;;;;;13.00;9.13;;;;;;;;;;494589;240;27348;-69
2021/07/20 03:19:11;;;;;;;12.40;8.27;;;;;;;;;;494579;240;27474;-69
2021/07/20 03:21:13;;;;;;;14.80;9.73;;;;;;;;;;494587;240;27460;-69
2021/07/20 03:23:16;;;;;;;14.67;9.80;;;;;;;;;;494580;240;27871;-69
2021/07/20 03:25:18;;;;;;;13.50;9.77;;;;;;;;;;494540;240;27877;-70
2021/07/20 03:27:20;;;;;;;9.77;8.00;;;;;;;;;;494599;240;28178;-71
2021/07/20 03:29:22;;;;;;;12.50;8.77;;;;;;;;;;494376;240;27503;-71
2021/07/20 03:31:24;;;;;;;13.37;9.77;;;;;;;;;;494596;240;28420;-71
2021/07/20 03:33:26;;;;;;;12.53;9.30;;;;;;;;;;494583;240;27588;-68
2021/07/20 03:35:28;;;;;;;12.47;8.60;;;;;;;;;;494575;240;28971;-70
2021/07/20 03:37:30;;;;;;;10.83;8.80;;;;;;;;;;494582;240;28722;-70
2021/07/20 03:39:33;;;;;;;13.63;9.23;;;;;;;;;;494605;240;28590;-69
2021/07/20 03:41:35;;;;;;;11.93;9.13;;;;;;;;;;494592;240;28706;-70
2021/07/20 03:43:37;;;;;;;11.17;8.40;;;;;;;;;;494586;240;27849;-70
2021/07/20 03:45:39;;;;;;;12.20;9.57;;;;;;;;;;494610;240;28396;-70
2021/07/20 03:47:41;;;;;;;12.30;9.07;;;;;;;;;;494623;240;27458;-70
2021/07/20 03:49:43;;;;;;;11.97;9.23;;;;;;;;;;494604;240;29295;-70
2021/07/20 03:51:45;;;;;;;12.37;9.13;;;;;;;;;;494608;240;28694;-70
2021/07/20 03:53:47;;;;;;;11.80;9.20;;;;;;;;;;494596;240;28417;-71
2021/07/20 03:55:49;;;;;;;11.90;8.60;;;;;;;;;;494598;240;28476;-70
2021/07/20 03:57:52;;;;;;;10.40;7.70;;;;;;;;;;494593;240;27898;-70
2021/07/20 03:59:54;;;;;;;14.63;9.17;;;;;;;;;;494603;240;28271;-70
2021/07/20 04:01:56;;;;;;;11.50;8.80;;;;;;;;;;494599;240;27906;-70
2021/07/20 04:03:58;;;;;;;13.30;9.30;;;;;;;;;;494597;240;29216;-70
2021/07/20 04:06:00;;;;;;;11.53;8.10;;;;;;;;;;494598;240;27814;-70
2021/07/20 04:08:02;;;;;;;11.90;8.67;;;;;;;;;;494611;240;28371;-70
2021/07/20 04:10:04;;;;;;;11.70;8.63;;;;;;;;;;494537;240;27709;-70
2021/07/20 04:12:07;;;;;;;11.33;8.10;;;;;;;;;;494604;240;28310;-70
2021/07/20 04:14:09;;;;;;;12.67;8.60;;;;;;;;;;494603;240;27827;-70
2021/07/20 04:16:11;;;;;;;13.33;8.37;;;;;;;;;;494072;240;28569;-70
2021/07/20 04:18:13;;;;;;;11.03;8.47;;;;;;;;;;494555;240;28173;-70
2021/07/20 04:20:15;;;;;;;12.70;8.47;;;;;;;;;;494594;240;28693;-70
2021/07/20 04:22:17;;;;;;;8.13;6.93;;;;;;;;;;494595;240;28014;-70
2021/07/20 04:24:19;;;;;;;13.00;7.83;;;;;;;;;;494581;240;27915;-70
2021/07/20 04:26:21;;;;;;;10.60;7.77;;;;;;;;;;494584;240;28487;-69
2021/07/20 04:28:23;;;;;;;11.40;8.83;;;;;;;;;;494608;240;27587;-70
2021/07/20 04:30:26;;;;;;;9.10;6.93;;;;;;;;;;494607;240;28003;-70
2021/07/20 04:32:28;;;;;;;10.20;8.00;;;;;;;;;;494599;240;27772;-70
2021/07/20 04:34:30;;;;;;;14.40;8.03;;;;;;;;;;494598;240;27531;-70
2021/07/20 04:36:32;;;;;;;10.30;8.30;;;;;;;;;;494618;240;27970;-69
2021/07/20 04:38:34;;;;;;;9.50;7.73;;;;;;;;;;494633;240;28005;-70
2021/07/20 04:40:36;;;;;;;9.93;7.87;;;;;;;;;;494609;240;27833;-70
2021/07/20 04:42:38;;;;;;;10.60;7.20;;;;;;;;;;494544;240;28700;-70
2021/07/20 04:44:40;;;;;;;12.90;8.43;;;;;;;;;;494613;240;27592;-70
2021/07/20 04:46:43;;;;;;;10.50;8.07;;;;;;;;;;494619;240;28439;-70
2021/07/20 04:48:45;;;;;;;9.70;7.60;;;;;;;;;;494609;240;28479;-69
2021/07/20 04:50:47;;;;;;;9.40;7.47;;;;;;;;;;494608;240;28942;-70
2021/07/20 04:52:49;;;;;;;11.07;8.33;;;;;;;;;;494608;240;28373;-70
2021/07/20 04:54:51;;;;;;;11.00;7.70;;;;;;;;;;494617;240;28595;-70
2021/07/20 04:56:53;;;;;;;12.63;9.20;;;;;;;;;;494552;240;28286;-70
2021/07/20 04:58:55;;;;;;;10.33;8.50;;;;;;;;;;494563;240;27926;-70
2021/07/20 05:00:57;;;;;;;10.53;7.97;;;;;;;;;;494598;240;27836;-70
2021/07/20 05:02:59;;;;;;;9.87;7.67;;;;;;;;;;494581;240;27697;-70
2021/07/20 05:05:02;;;;;;;10.90;8.33;;;;;;;;;;494606;240;27824;-70
2021/07/20 05:07:04;;;;;;;11.30;9.10;;;;;;;;;;494615;240;27921;-69
2021/07/20 05:09:06;;;;;;;9.90;8.60;;;;;;;;;;494585;240;28947;-70
2021/07/20 05:11:08;;;;;;;11.57;8.50;;;;;;;;;;494582;240;27510;-70
2021/07/20 05:13:10;;;;;;;10.77;8.50;;;;;;;;;;494532;240;28746;-70
2021/07/20 05:15:12;;;;;;;11.00;9.30;;;;;;;;;;494508;240;27446;-69
2021/07/20 05:17:14;;;;;;;9.53;7.90;;;;;;;;;;494515;240;27882;-71
2021/07/20 05:19:16;;;;;;;11.10;8.63;;;;;;;;;;494534;240;27348;-71
2021/07/20 05:21:19;;;;;;;10.87;8.90;;;;;;;;;;494590;240;27825;-69
2021/07/20 05:23:21;;;;;;;13.13;9.70;;;;;;;;;;494591;240;27843;-69
2021/07/20 05:25:23;;;;;;;11.10;8.67;;;;;;;;;;494606;240;27496;-69
2021/07/20 05:27:25;;;;;;;10.80;8.43;;;;;;;;;;494590;240;27407;-70
2021/07/20 05:29:27;;;;;;;10.43;8.33;;;;;;;;;;494604;240;27495;-71
2021/07/20 05:31:29;;;;;;;10.63;8.60;;;;;;;;;;494626;240;27491;-71
2021/07/20 05:33:32;;;;;;;10.30;8.43;;;;;;;;;;494631;240;27376;-71
2021/07/20 05:35:34;;;;;;;10.80;8.83;;;;;;;;;;494594;240;28354;-71
2021/07/20 05:37:35;;;;;;;12.10;8.67;;;;;;;;;;494615;240;27376;-71
2021/07/20 05:39:38;;;;;;;9.87;8.60;;;;;;;;;;494411;240;29263;-69
2021/07/20 05:41:40;;;;;;;10.10;8.30;;;;;;;;;;494591;240;27415;-70
2021/07/20 05:43:42;;;;;;;13.50;8.90;;;;;;;;;;494593;240;27851;-69
2021/07/20 05:45:44;;;;;;;13.00;9.03;;;;;;;;;;494592;240;27372;-70
2021/07/20 05:47:46;;;;;;;10.47;8.47;;;;;;;;;;494597;240;27442;-71
2021/07/20 05:49:48;;;;;;;12.27;8.67;;;;;;;;;;494593;240;27395;-69
2021/07/20 05:51:51;;;;;;;11.03;9.10;;;;;;;;;;494596;240;27423;-71
2021/07/20 05:53:52;;;;;;;10.77;8.40;;;;;;;;;;494584;240;27359;-70
2021/07/20 05:55:55;;;;;;;11.97;8.50;;;;;;;;;;494592;240;27340;-70
2021/07/20 05:57:57;;;;;;;11.00;8.40;;;;;;;;;;494560;240;27364;-69
2021/07/20 05:59:59;;;;;;;9.43;7.90;;;;;;;;;;494591;240;27383;-71
2021/07/20 06:02:01;;;;;;;11.43;9.30;;;;;;;;;;494603;240;27370;-70
2021/07/20 06:04:03;;;;;;;11.63;8.67;;;;;;;;;;494585;240;27328;-71
2021/07/20 06:06:05;;;;;;;13.27;10.03;;;;;;;;;;494611;240;27372;-69
2021/07/20 06:08:07;;;;;;;15.50;10.60;;;;;;;;;;494606;240;27351;-69
2021/07/20 06:10:09;;;;;;;13.73;10.30;;;;;;;;;;494598;240;27391;-69
2021/07/20 06:12:11;;;;;;;14.20;10.50;;;;;;;;;;494602;240;27449;-69
2021/07/20 06:14:14;;;;;;;14.77;10.53;;;;;;;;;;494600;240;28836;-70
2021/07/20 06:16:16;;;;;;;13.87;10.00;;;;;;;;;;494602;240;27390;-70
2021/07/20 06:18:18;;;;;;;13.33;10.37;;;;;;;;;;494593;240;27947;-71
2021/07/20 06:20:20;;;;;;;13.30;9.60;;;;;;;;;;494617;240;27395;-71
2021/07/20 06:22:22;;;;;;;16.13;10.70;;;;;;;;;;494600;240;27936;-69
2021/07/20 06:24:24;;;;;;;18.87;11.43;;;;;;;;;;494526;240;27471;-71
2021/07/20 06:26:26;;;;;;;21.33;11.80;;;;;;;;;;494593;240;27380;-71
2021/07/20 06:28:28;;;;;;;15.37;11.13;;;;;;;;;;494603;240;27399;-69
2021/07/20 06:30:30;;;;;;;17.10;12.20;;;;;;;;;;494597;240;27384;-69
2021/07/20 06:32:33;;;;;;;17.50;12.30;;;;;;;;;;494552;240;27399;-69
2021/07/20 06:34:35;;;;;;;18.40;12.30;;;;;;;;;;494508;240;27400;-71
2021/07/20 06:36:37;;;;;;;17.03;11.77;;;;;;;;;;494567;240;27474;-69
2021/07/20 06:38:39;;;;;;;18.50;11.30;;;;;;;;;;494544;240;27382;-71
2021/07/20 06:40:41;;;;;;;17.23;11.60;;;;;;;;;;494573;240;27861;-69
2021/07/20 06:42:43;;;;;;;16.07;11.20;;;;;;;;;;494610;240;27447;-69
2021/07/20 06:44:46;;;;;;;19.13;11.80;;;;;;;;;;494609;240;27929;-69
2021/07/20 06:46:47;;;;;;;15.17;11.30;;;;;;;;;;494578;240;27435;-69
2021/07/20 06:48:50;;;;;;;22.50;12.20;;;;;;;;;;494561;240;27445;-71
2021/07/20 06:50:52;;;;;;;15.97;11.47;;;;;;;;;;494538;240;27353;-70
2021/07/20 06:52:54;;;;;;;14.23;10.00;;;;;;;;;;494447;240;27447;-70
2021/07/20 06:54:56;;;;;;;13.80;10.30;;;;;;;;;;494436;240;27396;-71
2021/07/20 06:56:59;;;;;;;15.03;11.00;;;;;;;;;;494370;240;27465;-71
2021/07/20 06:59:00;;;;;;;16.90;11.10;;;;;;;;;;494437;240;27352;-71
2021/07/20 07:01:02;;;;;;;17.80;11.87;;;;;;;;;;494601;240;27363;-71
2021/07/20 07:03:04;;;;;;;15.17;11.27;;;;;;;;;;494568;240;27826;-71
2021/07/20 07:05:07;;;;;;;14.40;9.97;;;;;;;;;;494580;240;27352;-71
2021/07/20 07:07:09;;;;;;;16.83;12.30;;;;;;;;;;494609;240;28733;-70
2021/07/20 07:09:11;;;;;;;15.57;11.73;;;;;;;;;;494587;240;27375;-71
2021/07/20 07:11:13;;;;;;;17.10;11.60;;;;;;;;;;494589;240;28011;-71
2021/07/20 07:13:16;;;;;;;16.20;11.93;;;;;;;;;;494593;240;27451;-72
2021/07/20 07:15:17;;;;;;;19.27;12.17;;;;;;;;;;494500;240;27381;-71
2021/07/20 07:17:19;;;;;;;18.90;12.33;;;;;;;;;;494579;240;27407;-70
2021/07/20 07:19:21;;;;;;;15.33;11.67;;;;;;;;;;494601;240;27373;-71
2021/07/20 07:21:23;;;;;;;16.43;11.30;;;;;;;;;;494417;240;27403;-71
2021/07/20 07:23:26;;;;;;;16.73;10.87;;;;;;;;;;494576;240;27437;-70
2021/07/20 07:25:28;;;;;;;15.40;11.27;;;;;;;;;;494601;240;28018;-69
2021/07/20 07:27:30;;;;;;;17.13;11.40;;;;;;;;;;494589;240;27372;-71
2021/07/20 07:29:32;;;;;;;16.63;11.97;;;;;;;;;;494560;240;27963;-69
2021/07/20 07:31:34;;;;;;;17.00;11.33;;;;;;;;;;494580;240;27372;-72
2021/07/20 07:33:36;;;;;;;15.20;11.33;;;;;;;;;;494586;240;27954;-69
2021/07/20 07:35:38;;;;;;;17.80;12.93;;;;;;;;;;494589;240;27392;-69
2021/07/20 07:37:40;;;;;;;15.60;11.60;;;;;;;;;;494579;240;27454;-71
2021/07/20 07:39:43;;;;;;;19.47;12.80;;;;;;;;;;494533;240;27471;-71
2021/07/20 07:41:46;;;;;;;16.50;12.37;;;;;;;;;;494595;240;27336;-71
2021/07/20 07:43:47;;;;;;;16.67;11.53;;;;;;;;;;494529;240;27444;-69
2021/07/20 07:45:49;;;;;;;16.37;11.77;;;;;;;;;;494589;240;27380;-69
2021/07/20 07:47:51;;;;;;;18.17;11.77;;;;;;;;;;494599;240;27360;-69
2021/07/20 07:49:53;;;;;;;16.77;11.30;;;;;;;;;;494580;240;27352;-69
2021/07/20 07:51:55;;;;;;;19.40;11.70;;;;;;;;;;494603;240;27807;-70
2021/07/20 07:54:00;;;;;;;19.60;11.60;;;;;;;;;;494576;240;27351;-69
2021/07/20 07:56:02;;;;;;;15.90;10.60;;;;;;;;;;494572;240;28732;-71
2021/07/20 07:58:04;;;;;;;16.23;11.30;;;;;;;;;;494583;240;27490;-72
2021/07/20 08:00:06;;;;;;;14.23;9.90;;;;;;;;;;494605;240;27862;-72
2021/07/20 08:02:08;;;;;;;14.50;10.40;;;;;;;;;;494584;240;27395;-71
2021/07/20 08:04:11;;;;;;;21.43;13.40;;;;;;;;;;494580;240;27976;-72
2021/07/20 08:06:20;;;;;;;18.97;12.93;;;;;;;;;;494602;240;27399;-71
2021/07/20 08:08:15;;;;;;;18.97;11.60;;;;;;;;;;493978;240;27427;-71
2021/07/20 08:10:17;;;;;;;15.80;11.67;;;;;;;;;;494531;240;27466;-71
2021/07/20 08:12:19;;;;;;;16.50;11.07;;;;;;;;;;494589;240;27384;-71
2021/07/20 08:14:21;;;;;;;14.37;10.53;;;;;;;;;;494535;240;27363;-71
2021/07/20 08:16:24;;;;;;;15.00;10.67;;;;;;;;;;494584;240;27341;-72
2021/07/20 08:18:25;;;;;;;18.97;12.60;;;;;;;;;;494566;238;27831;-71
2021/07/20 08:20:28;;;;;;;17.80;11.63;;;;;;;;;;494586;240;27352;-71
2021/07/20 08:22:30;;;;;;;18.60;13.10;;;;;;;;;;494512;240;27856;-71
2021/07/20 08:24:34;;;;;;;18.63;11.60;;;;;;;;;;494573;240;27387;-71
2021/07/20 08:26:34;;;;;;;17.27;12.03;;;;;;;;;;494404;240;27819;-71
2021/07/20 08:28:36;;;;;;;17.60;11.73;;;;;;;;;;494622;240;27356;-71
2021/07/20 08:30:38;;;;;;;13.60;10.67;;;;;;;;;;494603;240;27356;-70
2021/07/20 08:32:40;;;;;;;19.70;12.07;;;;;;;;;;494605;240;27356;-72
2021/07/20 08:34:42;;;;;;;15.70;11.97;;;;;;;;;;494624;240;27344;-71
2021/07/20 08:36:44;;;;;;;15.30;10.87;;;;;;;;;;494597;240;27356;-71
2021/07/20 08:38:47;;;;;;;16.47;10.70;;;;;;;;;;494629;240;27435;-71
2021/07/20 08:40:49;;;;;;;13.23;10.20;;;;;;;;;;494609;240;27344;-71
2021/07/20 08:42:51;;;;;;;15.43;10.20;;;;;;;;;;494632;240;27371;-70
2021/07/20 08:44:53;;;;;;;17.23;10.60;;;;;;;;;;494617;240;28292;-72
2021/07/20 08:46:55;;;;;;;15.67;11.33;;;;;;;;;;494646;240;27466;-71
2021/07/20 08:48:57;;;;;;;15.13;11.03;;;;;;;;;;494625;240;27989;-71
2021/07/20 08:50:59;;;;;;;13.43;10.77;;;;;;;;;;494625;240;27391;-71
2021/07/20 08:53:01;;;;;;;15.33;11.43;;;;;;;;;;494621;240;27994;-71
2021/07/20 08:55:04;;;;;;;15.50;11.20;;;;;;;;;;494099;240;27487;-71
2021/07/20 08:57:06;;;;;;;17.20;10.87;;;;;;;;;;494538;240;27862;-71
2021/07/20 08:59:08;;;;;;;12.93;10.40;;;;;;;;;;494519;240;27387;-70
2021/07/20 09:01:10;;;;;;;13.40;9.90;;;;;;;;;;494626;240;27407;-71
2021/07/20 09:03:13;;;;;;;14.43;10.30;;;;;;;;;;494614;240;27395;-71
2021/07/20 09:05:14;;;;;;;16.10;10.60;;;;;;;;;;494539;240;27383;-71
2021/07/20 09:07:16;;;;;;;12.80;10.20;;;;;;;;;;494595;240;27403;-71
2021/07/20 09:09:18;;;;;;;13.60;10.77;;;;;;;;;;494615;240;27439;-71
2021/07/20 09:11:20;;;;;;;13.77;10.47;;;;;;;;;;494601;240;27387;-71
2021/07/20 09:13:23;;;;;;;11.27;9.33;;;;;;;;;;494592;240;27420;-70
2021/07/20 09:15:26;;;;;;;11.83;9.93;;;;;;;;;;494595;240;27929;-70
2021/07/20 09:17:27;;;;;;;13.73;9.63;;;;;;;;;;494500;240;27344;-71
2021/07/20 09:19:29;;;;;;;12.10;9.60;;;;;;;;;;494604;240;27918;-70
2021/07/20 09:21:31;;;;;;;14.13;10.23;;;;;;;;;;494607;240;27431;-71
2021/07/20 09:23:33;;;;;;;13.30;10.50;;;;;;;;;;494600;240;27963;-72
2021/07/20 09:25:35;;;;;;;14.60;10.63;;;;;;;;;;494597;240;27423;-70
2021/07/20 09:27:37;;;;;;;15.23;10.63;;;;;;;;;;494619;240;27884;-71
2021/07/20 09:29:40;;;;;;;17.53;11.83;;;;;;;;;;494600;240;27395;-71
2021/07/20 09:31:42;;;;;;;13.83;10.90;;;;;;;;;;494610;240;27965;-71
2021/07/20 09:33:44;;;;;;;15.90;11.00;;;;;;;;;;494543;240;27446;-71
2021/07/20 09:35:46;;;;;;;15.33;9.70;;;;;;;;;;494583;240;27412;-71
2021/07/20 09:37:48;;;;;;;12.87;9.87;;;;;;;;;;494550;240;27521;-71
2021/07/20 09:39:49;;;;;;;12.30;9.10;;;18.80;99.90;;;;;;494500;240;27482;-71
2021/07/20 09:41:51;;;;;;;15.13;9.80;;;18.90;99.90;;;;;;494267;240;28776;-72
2021/07/20 09:43:52;;;;;;;13.87;9.40;;;18.80;99.90;;;;;;494497;240;28760;-71
2021/07/20 09:45:53;;;;;;;14.00;10.13;;;18.80;99.90;;;;;;494602;240;28729;-71
2021/07/20 09:47:54;;;;;;;14.03;8.80;;;18.90;99.90;;;;;;494594;240;28759;-72
2021/07/20 09:49:55;;;;;;;11.57;9.13;;;19.00;99.90;;;;;;494597;240;28675;-70
2021/07/20 09:51:57;;;;;;;14.57;10.10;;;19.10;99.90;;;;;;494588;238;29233;-69
2021/07/20 09:53:58;;;;;;;13.03;8.67;;;19.00;99.90;;;;;;494575;240;29159;-72
2021/07/20 09:55:59;;;;;;;13.03;9.63;;;19.20;99.90;;;;;;494602;240;28726;-72
2021/07/20 09:58:00;;;;;;;11.20;9.07;;;19.30;99.90;;;;;;494588;240;28781;-71
2021/07/20 10:00:02;;;;;;;12.70;9.40;;;19.20;99.90;;;;;;494598;240;28694;-71
2021/07/20 10:02:03;;;;;;;16.90;11.30;;;19.20;99.90;;;;;;494584;239;28654;-70
2021/07/20 10:04:04;;;;;;;15.90;10.53;;;18.90;99.90;;;;;;494585;240;28707;-69
2021/07/20 10:06:05;;;;;;;13.13;9.63;;;19.10;99.90;;;;;;494568;240;28767;-71
2021/07/20 10:08:07;;;;;;;11.67;8.50;;;19.00;99.90;;;;;;494600;240;29245;-71
2021/07/20 10:10:08;;;;;;;12.27;9.60;;;19.10;99.90;;;;;;494589;240;29267;-69
2021/07/20 10:12:09;;;;;;;11.90;8.53;;;19.20;99.90;;;;;;494560;240;29178;-69
2021/07/20 10:14:10;;;;;;;12.07;8.83;;;19.10;99.90;;;;;;494583;240;28715;-69
2021/07/20 10:16:12;;;;;;;12.73;9.53;;;19.20;99.90;;;;;;494465;240;28751;-70
2021/07/20 10:18:13;;;;;;;10.67;8.07;;;19.30;99.90;;;;;;494586;238;28671;-69
2021/07/20 10:20:14;;;;;;;12.83;9.40;;;19.50;99.90;;;;;;494588;240;28702;-71
2021/07/20 10:22:16;;;;;;;12.07;8.60;;;19.50;99.90;;;;;;494590;240;28680;-71
2021/07/20 10:24:17;;;;;;;11.37;9.17;;;19.60;99.90;;;;;;494572;240;28714;-71
2021/07/20 10:26:18;;;;;;;13.30;8.73;;;19.40;99.90;;;;;;494591;240;29141;-71
2021/07/20 10:28:19;;;;;;;12.10;8.93;;;19.40;99.90;;;;;;494581;240;29270;-71
2021/07/20 10:30:21;;;;;;;15.77;10.27;;;19.50;99.90;;;;;;494588;240;29188;-70
2021/07/20 10:32:22;;;;;;;15.53;10.90;;;19.20;99.90;;;;;;494592;240;28673;-71
2021/07/20 10:34:23;;;;;;;14.00;9.53;;;19.50;99.90;;;;;;494486;240;28765;-70
2021/07/20 10:36:24;;;;;;;11.87;9.70;;;19.70;99.90;;;;;;494595;240;28750;-71
2021/07/20 10:38:26;;;;;;;13.93;10.00;;;19.80;99.90;;;;;;494596;240;28715;-71
2021/07/20 10:40:27;;;;;;;18.40;10.60;;;19.70;99.90;;;;;;494589;240;28801;-71
2021/07/20 10:42:28;;;;;;;14.37;10.50;;;19.40;99.90;;;;;;494595;240;29319;-72
2021/07/20 10:44:29;;;;;;;14.07;10.03;;;19.50;99.90;;;;;;494586;240;29249;-71
2021/07/20 10:46:31;;;;;;;15.17;10.43;;;19.50;99.90;;;;;;494597;240;28701;-71
2021/07/20 10:48:33;;;;;;;12.57;9.23;;;19.40;99.90;;;;;;494566;240;28649;-70
2021/07/20 10:50:33;;;;;;;12.77;9.70;;;19.60;99.90;;;;;;494569;240;28780;-71
2021/07/20 10:52:34;;;;;;;15.40;10.60;;;19.70;99.90;;;;;;494622;240;28758;-71
2021/07/20 10:54:36;;;;;;;12.20;9.40;;;19.80;99.90;;;;;;494603;240;28704;-71
2021/07/20 10:56:39;;;;;;;16.90;10.50;;;19.80;99.90;;;;;;494592;240;28733;-71
2021/07/20 10:58:39;;;;;;;12.43;9.10;;;20.00;99.90;;;;;;494438;240;29121;-69
2021/07/20 11:00:40;;;;;;;11.17;8.77;;;20.00;99.90;;;;;;494581;239;29259;-72
2021/07/20 11:02:41;;;;;;;10.57;8.47;;;19.90;99.90;;;;;;494538;240;28757;-71
2021/07/20 11:04:42;;;;;;;10.37;8.90;;;19.70;99.90;;;;;;494558;240;28777;-71
2021/07/20 11:06:43;;;;;;;11.50;9.00;;;19.70;99.90;;;;;;494583;240;28708;-72
2021/07/20 11:08:44;;;;;;;10.77;8.90;;;19.70;99.90;;;;;;494587;240;28748;-71
2021/07/20 11:10:46;;;;;;;11.57;8.63;;;19.70;99.90;;;;;;494568;240;28753;-71
2021/07/20 11:12:47;;;;;;;10.27;8.90;;;19.60;99.90;;;;;;494557;240;28673;-72
2021/07/20 11:14:48;;;;;;;12.20;8.60;;;19.70;99.90;;;;;;494524;240;28766;-71
2021/07/20 11:16:49;;;;;;;13.20;9.20;;;19.70;99.90;;;;;;494574;240;29223;-71
2021/07/20 11:18:51;;;;;;;14.30;9.87;;;19.80;99.90;;;;;;494557;240;29130;-71
2021/07/20 11:20:53;;;;;;;14.07;9.67;;;20.00;99.90;;;;;;494583;240;28710;-71
2021/07/20 11:22:53;;;;;;;12.53;8.93;;;19.90;99.90;;;;;;494508;240;28654;-71
2021/07/20 11:24:54;;;;;;;13.07;8.90;;;20.00;99.90;;;;;;494573;240;28758;-71
2021/07/20 11:26:57;;;;;;;14.00;10.03;;;20.10;99.90;;;;;;494581;240;28682;-71
2021/07/20 11:28:57;;;;;;;10.57;8.83;;;20.30;99.90;;;;;;494465;240;28645;-71
2021/07/20 11:30:59;;;;;;;10.77;8.40;;;20.20;99.90;;;;;;494584;240;28706;-71
2021/07/20 11:32:59;;;;;;;11.67;8.73;;;20.20;99.90;;;;;;494544;240;29157;-71
2021/07/20 11:35:01;;;;;;;12.13;9.57;;;20.20;99.90;;;;;;494535;238;29239;-71
2021/07/20 11:37:02;;;;;;;14.27;9.80;;;20.10;99.90;;;;;;494579;240;29195;-70
2021/07/20 11:39:03;;;;;;;16.23;10.53;;;20.30;99.90;;;;;;494567;240;28662;-70
2021/07/20 11:41:09;;;;;;;16.33;11.30;;;20.60;99.90;;;;;;494579;240;28699;-71